Terminal Aerodrome Forecast
Issued by NWS Northern Indiana

Home | Current Version | Previous Version | Graphics & Text | Print | Product List | Glossary On
Versions: 1 2 3 4 5 6 7 8 9 10 11 12 13 14 15 16 17 18 19
663
FTUS43 KIWX 050238 AAA
TAFFWA
TAF AMD
KFWA 050238Z 0503/0524 23008KT 3SM BR OVC003
     FM050400 26010KT 5SM BR OVC004
     FM051800 21008KT P6SM OVC008
     FM052200 15005KT P6SM BKN012=

USA.gov is the U.S. government's official web portal to all federal, state and local government web resources and services.